sensor_id;sensor_type;location;lat;lon;timestamp;temperature;humidity
21759;DHT22;11041;50.854;20.580;2024-02-16T00:00:59;4.40;99.90
21759;DHT22;11041;50.854;20.580;2024-02-16T00:03:36;4.40;99.90
21759;DHT22;11041;50.854;20.580;2024-02-16T00:06:03;4.40;99.90
21759;DHT22;11041;50.854;20.580;2024-02-16T00:08:30;4.50;99.90
21759;DHT22;11041;50.854;20.580;2024-02-16T00:10:57;4.50;99.90
21759;DHT22;11041;50.854;20.580;2024-02-16T00:13:24;4.50;99.90
21759;DHT22;11041;50.854;20.580;2024-02-16T00:15:53;4.50;99.90
21759;DHT22;11041;50.854;20.580;2024-02-16T00:18:20;4.50;99.90
21759;DHT22;11041;50.854;20.580;2024-02-16T00:20:46;4.50;99.90
21759;DHT22;11041;50.854;20.580;2024-02-16T00:23:13;4.60;99.90
21759;DHT22;11041;50.854;20.580;2024-02-16T00:25:41;4.60;99.90
21759;DHT22;11041;50.854;20.580;2024-02-16T00:28:08;4.60;99.90
21759;DHT22;11041;50.854;20.580;2024-02-16T00:30:36;4.60;99.90
21759;DHT22;11041;50.854;20.580;2024-02-16T00:33:02;4.50;99.90
21759;DHT22;11041;50.854;20.580;2024-02-16T00:35:29;4.30;99.90
21759;DHT22;11041;50.854;20.580;2024-02-16T00:38:02;4.20;99.90
21759;DHT22;11041;50.854;20.580;2024-02-16T00:40:29;4.10;99.90
21759;DHT22;11041;50.854;20.580;2024-02-16T00:42:57;4.00;99.90
21759;DHT22;11041;50.854;20.580;2024-02-16T00:45:24;3.70;99.90
21759;DHT22;11041;50.854;20.580;2024-02-16T00:47:51;3.70;99.90
21759;DHT22;11041;50.854;20.580;2024-02-16T00:50:18;3.70;99.90
21759;DHT22;11041;50.854;20.580;2024-02-16T00:52:44;3.70;99.90
21759;DHT22;11041;50.854;20.580;2024-02-16T00:55:12;3.70;99.90
21759;DHT22;11041;50.854;20.580;2024-02-16T00:57:39;3.80;99.90
21759;DHT22;11041;50.854;20.580;2024-02-16T01:00:06;3.70;99.90
21759;DHT22;11041;50.854;20.580;2024-02-16T01:02:36;3.80;99.90
21759;DHT22;11041;50.854;20.580;2024-02-16T01:05:04;3.80;99.90
21759;DHT22;11041;50.854;20.580;2024-02-16T01:07:31;3.80;99.90
21759;DHT22;11041;50.854;20.580;2024-02-16T01:09:58;3.80;99.90
21759;DHT22;11041;50.854;20.580;2024-02-16T01:12:26;3.90;99.90
21759;DHT22;11041;50.854;20.580;2024-02-16T01:14:53;3.80;99.90
21759;DHT22;11041;50.854;20.580;2024-02-16T01:17:19;3.90;99.90
21759;DHT22;11041;50.854;20.580;2024-02-16T01:19:46;3.80;99.90
21759;DHT22;11041;50.854;20.580;2024-02-16T01:22:12;3.80;99.90
21759;DHT22;11041;50.854;20.580;2024-02-16T01:24:40;3.80;99.90
21759;DHT22;11041;50.854;20.580;2024-02-16T01:27:07;3.80;99.90
21759;DHT22;11041;50.854;20.580;2024-02-16T01:29:34;3.80;99.90
21759;DHT22;11041;50.854;20.580;2024-02-16T01:32:01;3.70;99.90
21759;DHT22;11041;50.854;20.580;2024-02-16T01:34:29;3.70;99.90
21759;DHT22;11041;50.854;20.580;2024-02-16T01:36:58;3.70;99.90
21759;DHT22;11041;50.854;20.580;2024-02-16T01:39:26;3.70;99.90
21759;DHT22;11041;50.854;20.580;2024-02-16T01:41:53;3.70;99.90
21759;DHT22;11041;50.854;20.580;2024-02-16T01:44:20;3.70;99.90
21759;DHT22;11041;50.854;20.580;2024-02-16T01:46:46;3.60;99.90
21759;DHT22;11041;50.854;20.580;2024-02-16T01:49:14;3.60;99.90
21759;DHT22;11041;50.854;20.580;2024-02-16T01:51:42;3.60;99.90
21759;DHT22;11041;50.854;20.580;2024-02-16T01:54:11;3.60;99.90
21759;DHT22;11041;50.854;20.580;2024-02-16T01:56:40;3.60;99.90
21759;DHT22;11041;50.854;20.580;2024-02-16T01:59:08;3.50;99.90
21759;DHT22;11041;50.854;20.580;2024-02-16T02:01:34;3.50;99.90
21759;DHT22;11041;50.854;20.580;2024-02-16T02:04:02;3.50;99.90
21759;DHT22;11041;50.854;20.580;2024-02-16T02:06:30;3.40;99.90
21759;DHT22;11041;50.854;20.580;2024-02-16T02:08:57;3.40;99.90
21759;DHT22;11041;50.854;20.580;2024-02-16T02:11:24;3.40;99.90
21759;DHT22;11041;50.854;20.580;2024-02-16T02:13:51;3.40;99.90
21759;DHT22;11041;50.854;20.580;2024-02-16T02:16:18;3.20;99.90
21759;DHT22;11041;50.854;20.580;2024-02-16T02:18:47;3.10;99.90
21759;DHT22;11041;50.854;20.580;2024-02-16T02:21:13;3.10;99.90
21759;DHT22;11041;50.854;20.580;2024-02-16T02:23:41;3.10;99.90
21759;DHT22;11041;50.854;20.580;2024-02-16T02:26:07;3.10;99.90
21759;DHT22;11041;50.854;20.580;2024-02-16T02:28:34;3.10;99.90
21759;DHT22;11041;50.854;20.580;2024-02-16T02:31:01;3.10;99.90
21759;DHT22;11041;50.854;20.580;2024-02-16T02:33:29;3.10;99.90
21759;DHT22;11041;50.854;20.580;2024-02-16T02:35:55;3.00;99.90
21759;DHT22;11041;50.854;20.580;2024-02-16T02:38:22;3.00;99.90
21759;DHT22;11041;50.854;20.580;2024-02-16T02:40:51;3.00;99.90
21759;DHT22;11041;50.854;20.580;2024-02-16T02:43:19;3.00;99.90
21759;DHT22;11041;50.854;20.580;2024-02-16T02:45:49;3.00;99.90
21759;DHT22;11041;50.854;20.580;2024-02-16T02:48:17;2.90;99.90
21759;DHT22;11041;50.854;20.580;2024-02-16T02:50:45;2.90;99.90
21759;DHT22;11041;50.854;20.580;2024-02-16T02:53:13;2.80;99.90
21759;DHT22;11041;50.854;20.580;2024-02-16T02:55:39;4.60;99.90
21759;DHT22;11041;50.854;20.580;2024-02-16T02:58:12;2.80;99.90
21759;DHT22;11041;50.854;20.580;2024-02-16T03:00:40;2.70;99.90
21759;DHT22;11041;50.854;20.580;2024-02-16T03:03:13;2.70;99.90
21759;DHT22;11041;50.854;20.580;2024-02-16T03:05:41;2.70;99.90
21759;DHT22;11041;50.854;20.580;2024-02-16T03:08:11;2.70;99.90
21759;DHT22;11041;50.854;20.580;2024-02-16T03:10:37;2.70;99.90
21759;DHT22;11041;50.854;20.580;2024-02-16T03:13:06;2.60;99.90
21759;DHT22;11041;50.854;20.580;2024-02-16T03:15:40;2.50;99.90
21759;DHT22;11041;50.854;20.580;2024-02-16T03:18:13;2.60;99.90
21759;DHT22;11041;50.854;20.580;2024-02-16T03:20:42;2.60;99.90
21759;DHT22;11041;50.854;20.580;2024-02-16T03:23:13;2.60;99.90
21759;DHT22;11041;50.854;20.580;2024-02-16T03:25:44;2.40;99.90
21759;DHT22;11041;50.854;20.580;2024-02-16T03:28:16;2.40;99.90
21759;DHT22;11041;50.854;20.580;2024-02-16T03:30:43;2.40;99.90
21759;DHT22;11041;50.854;20.580;2024-02-16T03:33:14;2.40;99.90
21759;DHT22;11041;50.854;20.580;2024-02-16T03:35:42;2.40;99.90
21759;DHT22;11041;50.854;20.580;2024-02-16T03:38:10;2.50;99.90
21759;DHT22;11041;50.854;20.580;2024-02-16T03:40:39;2.50;99.90
21759;DHT22;11041;50.854;20.580;2024-02-16T03:43:11;2.60;99.90
21759;DHT22;11041;50.854;20.580;2024-02-16T03:45:40;2.60;99.90
21759;DHT22;11041;50.854;20.580;2024-02-16T03:48:07;2.70;99.90
21759;DHT22;11041;50.854;20.580;2024-02-16T03:50:33;2.70;99.90
21759;DHT22;11041;50.854;20.580;2024-02-16T03:53:01;2.70;99.90
21759;DHT22;11041;50.854;20.580;2024-02-16T03:55:28;2.70;99.90
21759;DHT22;11041;50.854;20.580;2024-02-16T03:57:58;2.80;99.90
21759;DHT22;11041;50.854;20.580;2024-02-16T04:00:26;2.70;99.90
21759;DHT22;11041;50.854;20.580;2024-02-16T04:02:56;2.70;99.90
21759;DHT22;11041;50.854;20.580;2024-02-16T04:05:22;2.70;99.90
21759;DHT22;11041;50.854;20.580;2024-02-16T04:07:49;2.60;99.90
21759;DHT22;11041;50.854;20.580;2024-02-16T04:10:19;2.70;99.90
21759;DHT22;11041;50.854;20.580;2024-02-16T04:12:50;2.70;99.90
21759;DHT22;11041;50.854;20.580;2024-02-16T04:15:18;2.60;99.90
21759;DHT22;11041;50.854;20.580;2024-02-16T04:17:50;2.60;99.90
21759;DHT22;11041;50.854;20.580;2024-02-16T04:20:22;2.50;99.90
21759;DHT22;11041;50.854;20.580;2024-02-16T04:22:51;2.40;99.90
21759;DHT22;11041;50.854;20.580;2024-02-16T04:25:19;2.40;99.90
21759;DHT22;11041;50.854;20.580;2024-02-16T04:27:49;2.50;99.90
21759;DHT22;11041;50.854;20.580;2024-02-16T04:30:15;2.40;99.90
21759;DHT22;11041;50.854;20.580;2024-02-16T04:32:43;2.30;99.90
21759;DHT22;11041;50.854;20.580;2024-02-16T04:35:13;2.30;99.90
21759;DHT22;11041;50.854;20.580;2024-02-16T04:37:43;2.20;99.90
21759;DHT22;11041;50.854;20.580;2024-02-16T04:40:12;2.20;99.90
21759;DHT22;11041;50.854;20.580;2024-02-16T04:42:40;2.20;99.90
21759;DHT22;11041;50.854;20.580;2024-02-16T04:45:11;2.30;99.90
21759;DHT22;11041;50.854;20.580;2024-02-16T04:47:39;2.40;99.90
21759;DHT22;11041;50.854;20.580;2024-02-16T04:50:06;2.40;99.90
21759;DHT22;11041;50.854;20.580;2024-02-16T04:52:39;2.50;99.90
21759;DHT22;11041;50.854;20.580;2024-02-16T04:55:07;2.30;99.90
21759;DHT22;11041;50.854;20.580;2024-02-16T04:57:35;2.30;99.90
21759;DHT22;11041;50.854;20.580;2024-02-16T05:00:03;2.30;99.90
21759;DHT22;11041;50.854;20.580;2024-02-16T05:02:33;2.30;99.90
21759;DHT22;11041;50.854;20.580;2024-02-16T05:05:04;2.30;99.90
21759;DHT22;11041;50.854;20.580;2024-02-16T05:07:33;2.10;99.90
21759;DHT22;11041;50.854;20.580;2024-02-16T05:10:02;2.20;99.90
21759;DHT22;11041;50.854;20.580;2024-02-16T05:12:29;2.30;99.90
21759;DHT22;11041;50.854;20.580;2024-02-16T05:15:00;2.20;99.90
21759;DHT22;11041;50.854;20.580;2024-02-16T05:17:29;2.30;99.90
21759;DHT22;11041;50.854;20.580;2024-02-16T05:19:59;2.20;99.90
21759;DHT22;11041;50.854;20.580;2024-02-16T05:22:29;2.20;99.90
21759;DHT22;11041;50.854;20.580;2024-02-16T05:24:55;2.20;99.90
21759;DHT22;11041;50.854;20.580;2024-02-16T05:27:22;2.00;99.90
21759;DHT22;11041;50.854;20.580;2024-02-16T05:29:49;1.90;99.90
21759;DHT22;11041;50.854;20.580;2024-02-16T05:32:19;1.90;99.90
21759;DHT22;11041;50.854;20.580;2024-02-16T05:34:45;1.70;99.90
21759;DHT22;11041;50.854;20.580;2024-02-16T05:37:12;1.60;99.90
21759;DHT22;11041;50.854;20.580;2024-02-16T05:39:41;1.70;99.90
21759;DHT22;11041;50.854;20.580;2024-02-16T05:42:24;1.70;99.90
21759;DHT22;11041;50.854;20.580;2024-02-16T05:44:50;1.60;99.90
21759;DHT22;11041;50.854;20.580;2024-02-16T05:47:21;1.50;99.90
21759;DHT22;11041;50.854;20.580;2024-02-16T05:49:50;1.60;99.90
21759;DHT22;11041;50.854;20.580;2024-02-16T05:52:19;1.60;99.90
21759;DHT22;11041;50.854;20.580;2024-02-16T05:54:51;1.70;99.90
21759;DHT22;11041;50.854;20.580;2024-02-16T05:57:21;1.70;99.90
21759;DHT22;11041;50.854;20.580;2024-02-16T05:59:50;1.70;99.90
21759;DHT22;11041;50.854;20.580;2024-02-16T06:02:20;1.80;99.90
21759;DHT22;11041;50.854;20.580;2024-02-16T06:04:50;1.80;99.90
21759;DHT22;11041;50.854;20.580;2024-02-16T06:07:17;1.90;99.90
21759;DHT22;11041;50.854;20.580;2024-02-16T06:09:44;1.80;99.90
21759;DHT22;11041;50.854;20.580;2024-02-16T06:12:12;1.90;99.90
21759;DHT22;11041;50.854;20.580;2024-02-16T06:14:42;1.80;99.90
21759;DHT22;11041;50.854;20.580;2024-02-16T06:17:09;1.90;99.90
21759;DHT22;11041;50.854;20.580;2024-02-16T06:19:38;2.10;99.90
21759;DHT22;11041;50.854;20.580;2024-02-16T06:22:06;2.10;99.90
21759;DHT22;11041;50.854;20.580;2024-02-16T06:24:36;2.10;99.90
21759;DHT22;11041;50.854;20.580;2024-02-16T06:27:03;2.20;99.90
21759;DHT22;11041;50.854;20.580;2024-02-16T06:29:30;2.10;99.90
21759;DHT22;11041;50.854;20.580;2024-02-16T06:31:56;2.20;99.90
21759;DHT22;11041;50.854;20.580;2024-02-16T06:34:23;2.20;99.90
21759;DHT22;11041;50.854;20.580;2024-02-16T06:36:51;2.20;99.90
21759;DHT22;11041;50.854;20.580;2024-02-16T06:39:17;2.30;99.90
21759;DHT22;11041;50.854;20.580;2024-02-16T06:41:46;2.30;99.90
21759;DHT22;11041;50.854;20.580;2024-02-16T06:44:13;2.40;99.90
21759;DHT22;11041;50.854;20.580;2024-02-16T06:46:43;2.50;99.90
21759;DHT22;11041;50.854;20.580;2024-02-16T06:49:14;2.60;99.90
21759;DHT22;11041;50.854;20.580;2024-02-16T06:51:44;2.70;99.90
21759;DHT22;11041;50.854;20.580;2024-02-16T06:54:12;2.70;99.90
21759;DHT22;11041;50.854;20.580;2024-02-16T06:56:40;2.90;99.90
21759;DHT22;11041;50.854;20.580;2024-02-16T06:59:10;3.00;99.90
21759;DHT22;11041;50.854;20.580;2024-02-16T07:01:37;3.00;99.90
21759;DHT22;11041;50.854;20.580;2024-02-16T07:04:04;3.10;99.90
21759;DHT22;11041;50.854;20.580;2024-02-16T07:06:31;3.20;99.90
21759;DHT22;11041;50.854;20.580;2024-02-16T07:08:58;3.40;99.90
21759;DHT22;11041;50.854;20.580;2024-02-16T07:11:26;3.40;99.90
21759;DHT22;11041;50.854;20.580;2024-02-16T07:13:52;3.50;99.90
21759;DHT22;11041;50.854;20.580;2024-02-16T07:16:19;3.60;99.90
21759;DHT22;11041;50.854;20.580;2024-02-16T07:18:49;3.70;99.90
21759;DHT22;11041;50.854;20.580;2024-02-16T07:21:19;3.80;99.90
21759;DHT22;11041;50.854;20.580;2024-02-16T07:23:48;3.90;99.90
21759;DHT22;11041;50.854;20.580;2024-02-16T07:26:15;4.00;99.90
21759;DHT22;11041;50.854;20.580;2024-02-16T07:28:44;4.20;99.90
21759;DHT22;11041;50.854;20.580;2024-02-16T07:31:12;4.30;99.90
21759;DHT22;11041;50.854;20.580;2024-02-16T07:33:42;4.40;99.90
21759;DHT22;11041;50.854;20.580;2024-02-16T07:36:11;4.50;99.90
21759;DHT22;11041;50.854;20.580;2024-02-16T07:38:38;4.60;99.90
21759;DHT22;11041;50.854;20.580;2024-02-16T07:41:04;4.70;99.90
21759;DHT22;11041;50.854;20.580;2024-02-16T07:43:31;4.80;99.90
21759;DHT22;11041;50.854;20.580;2024-02-16T07:46:01;4.90;99.90
21759;DHT22;11041;50.854;20.580;2024-02-16T07:48:29;5.00;99.90
21759;DHT22;11041;50.854;20.580;2024-02-16T07:51:00;5.10;99.90
21759;DHT22;11041;50.854;20.580;2024-02-16T07:53:30;5.20;99.90
21759;DHT22;11041;50.854;20.580;2024-02-16T07:55:57;5.20;99.90
21759;DHT22;11041;50.854;20.580;2024-02-16T07:58:26;5.40;99.90
21759;DHT22;11041;50.854;20.580;2024-02-16T08:00:53;5.50;99.90
21759;DHT22;11041;50.854;20.580;2024-02-16T08:03:21;5.50;99.90
21759;DHT22;11041;50.854;20.580;2024-02-16T08:05:52;5.60;99.90
21759;DHT22;11041;50.854;20.580;2024-02-16T08:08:18;5.70;99.90
21759;DHT22;11041;50.854;20.580;2024-02-16T08:10:46;5.80;99.90
21759;DHT22;11041;50.854;20.580;2024-02-16T08:13:12;5.80;99.90
21759;DHT22;11041;50.854;20.580;2024-02-16T08:15:40;5.90;99.90
21759;DHT22;11041;50.854;20.580;2024-02-16T08:18:06;6.00;99.90
21759;DHT22;11041;50.854;20.580;2024-02-16T08:20:33;6.10;99.90
21759;DHT22;11041;50.854;20.580;2024-02-16T08:23:00;6.20;99.90
21759;DHT22;11041;50.854;20.580;2024-02-16T08:25:28;6.30;99.90
21759;DHT22;11041;50.854;20.580;2024-02-16T08:27:56;6.40;99.90
21759;DHT22;11041;50.854;20.580;2024-02-16T08:30:23;6.50;99.90
21759;DHT22;11041;50.854;20.580;2024-02-16T08:32:52;6.60;99.90
21759;DHT22;11041;50.854;20.580;2024-02-16T08:35:20;6.70;99.90
21759;DHT22;11041;50.854;20.580;2024-02-16T08:37:47;6.80;99.90
21759;DHT22;11041;50.854;20.580;2024-02-16T08:40:18;6.90;99.90
21759;DHT22;11041;50.854;20.580;2024-02-16T08:42:44;7.00;99.90
21759;DHT22;11041;50.854;20.580;2024-02-16T08:45:12;7.10;99.90
21759;DHT22;11041;50.854;20.580;2024-02-16T08:47:41;7.20;99.90
21759;DHT22;11041;50.854;20.580;2024-02-16T08:50:09;7.30;99.90
21759;DHT22;11041;50.854;20.580;2024-02-16T08:52:37;7.40;99.90
21759;DHT22;11041;50.854;20.580;2024-02-16T08:55:04;7.40;99.90
21759;DHT22;11041;50.854;20.580;2024-02-16T08:57:34;7.50;99.90
21759;DHT22;11041;50.854;20.580;2024-02-16T09:00:02;7.60;99.90
21759;DHT22;11041;50.854;20.580;2024-02-16T09:02:29;7.70;99.90
21759;DHT22;11041;50.854;20.580;2024-02-16T09:04:56;7.80;99.90
21759;DHT22;11041;50.854;20.580;2024-02-16T09:07:25;7.90;99.90
21759;DHT22;11041;50.854;20.580;2024-02-16T09:09:53;8.00;99.90
21759;DHT22;11041;50.854;20.580;2024-02-16T09:12:22;8.00;99.90
21759;DHT22;11041;50.854;20.580;2024-02-16T09:14:50;8.10;99.90
21759;DHT22;11041;50.854;20.580;2024-02-16T09:17:16;8.20;99.90
21759;DHT22;11041;50.854;20.580;2024-02-16T09:19:45;8.30;99.90
21759;DHT22;11041;50.854;20.580;2024-02-16T09:22:14;8.40;99.90
21759;DHT22;11041;50.854;20.580;2024-02-16T09:24:41;8.40;99.90
21759;DHT22;11041;50.854;20.580;2024-02-16T09:27:12;8.50;99.90
21759;DHT22;11041;50.854;20.580;2024-02-16T09:29:41;8.60;99.90
21759;DHT22;11041;50.854;20.580;2024-02-16T09:32:08;8.60;99.90
21759;DHT22;11041;50.854;20.580;2024-02-16T09:34:35;8.70;99.90
21759;DHT22;11041;50.854;20.580;2024-02-16T09:37:02;8.80;99.90
21759;DHT22;11041;50.854;20.580;2024-02-16T09:39:29;8.90;99.90
21759;DHT22;11041;50.854;20.580;2024-02-16T09:41:59;9.00;99.90
21759;DHT22;11041;50.854;20.580;2024-02-16T09:44:28;9.10;99.90
21759;DHT22;11041;50.854;20.580;2024-02-16T09:46:56;9.10;99.90
21759;DHT22;11041;50.854;20.580;2024-02-16T09:49:29;9.20;99.90
21759;DHT22;11041;50.854;20.580;2024-02-16T09:52:00;9.20;99.90
21759;DHT22;11041;50.854;20.580;2024-02-16T09:54:32;9.30;99.90
21759;DHT22;11041;50.854;20.580;2024-02-16T09:57:05;9.40;99.90
21759;DHT22;11041;50.854;20.580;2024-02-16T09:59:33;9.50;99.90
21759;DHT22;11041;50.854;20.580;2024-02-16T10:02:04;9.50;99.90
21759;DHT22;11041;50.854;20.580;2024-02-16T10:04:34;9.60;99.90
21759;DHT22;11041;50.854;20.580;2024-02-16T10:07:01;9.70;99.90
21759;DHT22;11041;50.854;20.580;2024-02-16T10:09:28;9.80;99.90
21759;DHT22;11041;50.854;20.580;2024-02-16T10:11:55;9.90;99.90
21759;DHT22;11041;50.854;20.580;2024-02-16T10:14:23;9.90;99.90
21759;DHT22;11041;50.854;20.580;2024-02-16T10:17:05;9.90;99.90
21759;DHT22;11041;50.854;20.580;2024-02-16T10:19:33;10.00;99.90
21759;DHT22;11041;50.854;20.580;2024-02-16T10:22:12;10.10;99.90
21759;DHT22;11041;50.854;20.580;2024-02-16T10:24:39;10.10;99.90
21759;DHT22;11041;50.854;20.580;2024-02-16T10:27:16;10.10;99.90
21759;DHT22;11041;50.854;20.580;2024-02-16T10:29:47;10.20;99.90
21759;DHT22;11041;50.854;20.580;2024-02-16T10:32:21;10.30;99.90
21759;DHT22;11041;50.854;20.580;2024-02-16T10:34:51;10.30;99.90
21759;DHT22;11041;50.854;20.580;2024-02-16T10:37:19;10.50;99.90
21759;DHT22;11041;50.854;20.580;2024-02-16T10:39:49;10.50;99.90
21759;DHT22;11041;50.854;20.580;2024-02-16T10:42:19;10.60;99.90
21759;DHT22;11041;50.854;20.580;2024-02-16T10:44:47;10.70;99.90
21759;DHT22;11041;50.854;20.580;2024-02-16T10:47:18;10.80;99.90
21759;DHT22;11041;50.854;20.580;2024-02-16T10:49:45;10.80;99.90
21759;DHT22;11041;50.854;20.580;2024-02-16T10:52:13;10.90;99.90
21759;DHT22;11041;50.854;20.580;2024-02-16T10:54:42;11.00;99.90
21759;DHT22;11041;50.854;20.580;2024-02-16T10:57:09;11.10;99.90
21759;DHT22;11041;50.854;20.580;2024-02-16T10:59:42;11.20;99.90
21759;DHT22;11041;50.854;20.580;2024-02-16T11:02:11;11.30;99.90
21759;DHT22;11041;50.854;20.580;2024-02-16T11:04:41;11.50;99.90
21759;DHT22;11041;50.854;20.580;2024-02-16T11:07:15;11.60;99.90
21759;DHT22;11041;50.854;20.580;2024-02-16T11:09:45;11.60;99.90
21759;DHT22;11041;50.854;20.580;2024-02-16T11:12:13;11.80;99.90
21759;DHT22;11041;50.854;20.580;2024-02-16T11:14:46;11.80;99.90
21759;DHT22;11041;50.854;20.580;2024-02-16T11:17:15;11.90;99.90
21759;DHT22;11041;50.854;20.580;2024-02-16T11:19:47;12.00;99.90
21759;DHT22;11041;50.854;20.580;2024-02-16T11:22:21;12.10;99.90
21759;DHT22;11041;50.854;20.580;2024-02-16T11:24:53;12.20;99.90
21759;DHT22;11041;50.854;20.580;2024-02-16T11:27:19;12.30;99.90
21759;DHT22;11041;50.854;20.580;2024-02-16T11:29:48;12.40;99.90
21759;DHT22;11041;50.854;20.580;2024-02-16T11:32:14;12.40;99.90
21759;DHT22;11041;50.854;20.580;2024-02-16T11:34:41;12.40;99.90
21759;DHT22;11041;50.854;20.580;2024-02-16T11:37:08;12.30;99.90
21759;DHT22;11041;50.854;20.580;2024-02-16T11:39:35;12.40;99.90
21759;DHT22;11041;50.854;20.580;2024-02-16T11:42:11;12.20;99.90
21759;DHT22;11041;50.854;20.580;2024-02-16T11:44:40;12.30;99.90
21759;DHT22;11041;50.854;20.580;2024-02-16T11:47:25;12.30;99.90
21759;DHT22;11041;50.854;20.580;2024-02-16T11:50:08;12.40;99.90
21759;DHT22;11041;50.854;20.580;2024-02-16T11:52:39;12.50;99.90
21759;DHT22;11041;50.854;20.580;2024-02-16T11:55:10;12.40;99.90
21759;DHT22;11041;50.854;20.580;2024-02-16T11:57:41;12.40;99.90
21759;DHT22;11041;50.854;20.580;2024-02-16T12:00:08;12.50;99.90
21759;DHT22;11041;50.854;20.580;2024-02-16T12:02:41;12.50;99.90
21759;DHT22;11041;50.854;20.580;2024-02-16T12:05:08;12.50;99.90
21759;DHT22;11041;50.854;20.580;2024-02-16T12:07:39;12.70;99.90
21759;DHT22;11041;50.854;20.580;2024-02-16T12:10:08;12.60;99.90
21759;DHT22;11041;50.854;20.580;2024-02-16T12:12:36;12.60;99.90
21759;DHT22;11041;50.854;20.580;2024-02-16T12:15:05;12.70;99.90
21759;DHT22;11041;50.854;20.580;2024-02-16T12:17:33;12.80;99.90
21759;DHT22;11041;50.854;20.580;2024-02-16T12:20:02;12.80;99.90
21759;DHT22;11041;50.854;20.580;2024-02-16T12:22:36;12.90;99.90
21759;DHT22;11041;50.854;20.580;2024-02-16T12:25:06;13.00;99.90
21759;DHT22;11041;50.854;20.580;2024-02-16T12:27:34;12.90;99.90
21759;DHT22;11041;50.854;20.580;2024-02-16T12:30:04;12.90;99.90
21759;DHT22;11041;50.854;20.580;2024-02-16T12:32:31;12.90;99.90
21759;DHT22;11041;50.854;20.580;2024-02-16T12:34:58;12.80;99.90
21759;DHT22;11041;50.854;20.580;2024-02-16T12:37:28;12.70;99.90
21759;DHT22;11041;50.854;20.580;2024-02-16T12:39:57;12.70;99.90
21759;DHT22;11041;50.854;20.580;2024-02-16T12:42:26;12.60;99.90
21759;DHT22;11041;50.854;20.580;2024-02-16T12:44:55;12.70;99.90
21759;DHT22;11041;50.854;20.580;2024-02-16T12:47:22;12.70;99.90
21759;DHT22;11041;50.854;20.580;2024-02-16T12:49:49;12.70;99.90
21759;DHT22;11041;50.854;20.580;2024-02-16T12:52:20;12.70;99.90
21759;DHT22;11041;50.854;20.580;2024-02-16T12:54:53;12.70;99.90
21759;DHT22;11041;50.854;20.580;2024-02-16T12:57:19;12.60;99.90
21759;DHT22;11041;50.854;20.580;2024-02-16T12:59:50;12.70;99.90
21759;DHT22;11041;50.854;20.580;2024-02-16T13:02:19;12.70;99.90
21759;DHT22;11041;50.854;20.580;2024-02-16T13:04:47;12.70;99.90
21759;DHT22;11041;50.854;20.580;2024-02-16T13:07:14;12.70;99.90
21759;DHT22;11041;50.854;20.580;2024-02-16T13:09:41;12.70;99.90
21759;DHT22;11041;50.854;20.580;2024-02-16T13:12:08;12.80;99.90
21759;DHT22;11041;50.854;20.580;2024-02-16T13:14:36;12.80;99.90
21759;DHT22;11041;50.854;20.580;2024-02-16T13:17:05;12.80;99.90
21759;DHT22;11041;50.854;20.580;2024-02-16T13:19:34;12.80;99.90
21759;DHT22;11041;50.854;20.580;2024-02-16T13:22:04;12.80;99.90
21759;DHT22;11041;50.854;20.580;2024-02-16T13:24:32;12.70;99.90
21759;DHT22;11041;50.854;20.580;2024-02-16T13:27:01;12.70;99.90
21759;DHT22;11041;50.854;20.580;2024-02-16T13:29:29;12.70;99.90
21759;DHT22;11041;50.854;20.580;2024-02-16T13:31:55;12.70;99.90
21759;DHT22;11041;50.854;20.580;2024-02-16T13:34:22;12.70;99.90
21759;DHT22;11041;50.854;20.580;2024-02-16T13:36:51;12.60;99.90
21759;DHT22;11041;50.854;20.580;2024-02-16T13:39:18;12.60;99.90
21759;DHT22;11041;50.854;20.580;2024-02-16T13:41:46;12.60;99.90
21759;DHT22;11041;50.854;20.580;2024-02-16T13:44:17;12.60;99.90
21759;DHT22;11041;50.854;20.580;2024-02-16T13:46:46;12.60;99.90
21759;DHT22;11041;50.854;20.580;2024-02-16T13:49:16;12.60;99.90
21759;DHT22;11041;50.854;20.580;2024-02-16T13:51:42;12.60;99.90
21759;DHT22;11041;50.854;20.580;2024-02-16T13:54:09;12.50;99.90
21759;DHT22;11041;50.854;20.580;2024-02-16T13:56:35;12.50;99.90
21759;DHT22;11041;50.854;20.580;2024-02-16T13:59:03;12.60;99.90
21759;DHT22;11041;50.854;20.580;2024-02-16T14:01:30;12.60;99.90
21759;DHT22;11041;50.854;20.580;2024-02-16T14:04:00;12.60;99.90
21759;DHT22;11041;50.854;20.580;2024-02-16T14:06:30;12.60;99.90
21759;DHT22;11041;50.854;20.580;2024-02-16T14:08:59;12.50;99.90
21759;DHT22;11041;50.854;20.580;2024-02-16T14:11:26;12.50;99.90
21759;DHT22;11041;50.854;20.580;2024-02-16T14:13:53;12.50;99.90
21759;DHT22;11041;50.854;20.580;2024-02-16T14:16:19;12.50;99.90
21759;DHT22;11041;50.854;20.580;2024-02-16T14:18:47;12.40;99.90
21759;DHT22;11041;50.854;20.580;2024-02-16T14:21:17;12.40;99.90
21759;DHT22;11041;50.854;20.580;2024-02-16T14:23:45;12.40;99.90
21759;DHT22;11041;50.854;20.580;2024-02-16T14:26:11;12.30;99.90
21759;DHT22;11041;50.854;20.580;2024-02-16T14:28:42;12.30;99.90
21759;DHT22;11041;50.854;20.580;2024-02-16T14:31:11;12.20;99.90
21759;DHT22;11041;50.854;20.580;2024-02-16T14:33:43;12.20;99.90
21759;DHT22;11041;50.854;20.580;2024-02-16T14:36:14;12.20;99.90
21759;DHT22;11041;50.854;20.580;2024-02-16T14:38:44;12.20;99.90
21759;DHT22;11041;50.854;20.580;2024-02-16T14:41:13;12.10;99.90
21759;DHT22;11041;50.854;20.580;2024-02-16T14:43:43;12.10;99.90
21759;DHT22;11041;50.854;20.580;2024-02-16T14:46:14;12.10;99.90
21759;DHT22;11041;50.854;20.580;2024-02-16T14:48:43;12.00;99.90
21759;DHT22;11041;50.854;20.580;2024-02-16T14:51:11;11.90;99.90
21759;DHT22;11041;50.854;20.580;2024-02-16T14:53:39;11.90;99.90
21759;DHT22;11041;50.854;20.580;2024-02-16T14:56:06;11.80;99.90
21759;DHT22;11041;50.854;20.580;2024-02-16T14:58:34;11.70;99.90
21759;DHT22;11041;50.854;20.580;2024-02-16T15:01:03;11.60;99.90
21759;DHT22;11041;50.854;20.580;2024-02-16T15:03:30;11.60;99.90
21759;DHT22;11041;50.854;20.580;2024-02-16T15:05:56;11.50;99.90
21759;DHT22;11041;50.854;20.580;2024-02-16T15:08:25;11.40;99.90
21759;DHT22;11041;50.854;20.580;2024-02-16T15:10:53;11.40;99.90
21759;DHT22;11041;50.854;20.580;2024-02-16T15:13:20;11.30;99.90
21759;DHT22;11041;50.854;20.580;2024-02-16T15:15:55;11.20;99.90
21759;DHT22;11041;50.854;20.580;2024-02-16T15:18:25;11.20;99.90
21759;DHT22;11041;50.854;20.580;2024-02-16T15:20:54;11.10;99.90
21759;DHT22;11041;50.854;20.580;2024-02-16T15:23:22;11.10;99.90
21759;DHT22;11041;50.854;20.580;2024-02-16T15:25:51;11.00;99.90
21759;DHT22;11041;50.854;20.580;2024-02-16T15:28:20;10.90;99.90
21759;DHT22;11041;50.854;20.580;2024-02-16T15:30:50;10.80;99.90
21759;DHT22;11041;50.854;20.580;2024-02-16T15:33:16;10.80;99.90